createdAt,value
2017-12-31T00:00:30.256Z,89.31
2017-12-31T00:01:36.326Z,89.25
2017-12-31T00:02:42.675Z,89.31
2017-12-31T00:03:49.026Z,89.42
2017-12-31T00:04:55.358Z,89.33
2017-12-31T00:06:01.809Z,89.42
2017-12-31T00:07:08.173Z,89.45
2017-12-31T00:08:14.439Z,89.63
2017-12-31T00:09:20.791Z,89.62
2017-12-31T00:10:27.624Z,89.62
2017-12-31T00:11:35.363Z,89.61
2017-12-31T00:12:41.957Z,89.50
2017-12-31T00:13:48.295Z,89.64
2017-12-31T00:14:58.511Z,89.39
2017-12-31T00:16:09.711Z,89.19
2017-12-31T00:17:15.984Z,89.10
2017-12-31T00:18:22.314Z,89.00
2017-12-31T00:19:28.579Z,88.82
2017-12-31T00:20:34.839Z,88.90
2017-12-31T00:21:40.492Z,88.73
2017-12-31T00:22:46.716Z,88.76
2017-12-31T00:23:52.960Z,88.79
2017-12-31T00:24:59.851Z,88.86
2017-12-31T00:26:06.198Z,88.92
2017-12-31T00:27:12.418Z,89.14
2017-12-31T00:28:18.752Z,89.04
2017-12-31T00:29:24.986Z,88.85
2017-12-31T00:30:31.348Z,88.67
2017-12-31T00:31:37.846Z,88.47
2017-12-31T00:32:44.136Z,88.47
2017-12-31T00:33:50.329Z,88.25
2017-12-31T00:34:56.563Z,88.10
2017-12-31T00:36:06.592Z,87.96
2017-12-31T00:37:13.824Z,88.14
2017-12-31T00:38:20.296Z,88.24
2017-12-31T00:39:26.592Z,88.10
2017-12-31T00:40:32.891Z,87.83
2017-12-31T00:41:39.222Z,87.94
2017-12-31T00:42:45.542Z,87.65
2017-12-31T00:43:51.798Z,87.73
2017-12-31T00:44:58.234Z,87.83
2017-12-31T00:46:05.426Z,87.67
2017-12-31T00:47:12.574Z,87.69
2017-12-31T00:48:18.868Z,87.44
2017-12-31T00:49:25.157Z,87.31
2017-12-31T00:50:31.442Z,87.40
2017-12-31T00:51:37.707Z,87.33
2017-12-31T00:52:44.402Z,87.45
2017-12-31T00:53:50.682Z,87.40
2017-12-31T00:54:56.911Z,87.26
2017-12-31T00:56:03.204Z,86.97
2017-12-31T00:57:09.490Z,87.25
2017-12-31T00:58:19.420Z,87.03
2017-12-31T00:59:25.774Z,86.91
2017-12-31T01:00:32.009Z,87.08
2017-12-31T01:01:38.255Z,87.05
2017-12-31T01:02:44.565Z,86.94
2017-12-31T01:03:50.722Z,86.96
2017-12-31T01:04:57.004Z,86.99
2017-12-31T01:06:03.891Z,87.02
2017-12-31T01:07:15.162Z,87.07
2017-12-31T01:08:22.621Z,86.75
2017-12-31T01:09:28.997Z,86.72
2017-12-31T01:10:35.245Z,86.72
2017-12-31T01:11:41.493Z,86.65
2017-12-31T01:12:47.732Z,86.38
2017-12-31T01:13:53.999Z,86.46
2017-12-31T01:15:00.291Z,86.47
2017-12-31T01:16:06.538Z,86.39
2017-12-31T01:17:12.817Z,86.17
2017-12-31T01:18:19.055Z,86.17
2017-12-31T01:19:25.675Z,86.05
2017-12-31T01:20:31.912Z,85.94
2017-12-31T01:21:38.092Z,85.74
2017-12-31T01:22:44.407Z,85.48
2017-12-31T01:23:50.647Z,85.58
2017-12-31T01:25:07.645Z,85.46
2017-12-31T01:26:13.865Z,85.56
2017-12-31T01:27:20.098Z,85.53
2017-12-31T01:28:26.317Z,85.22
2017-12-31T01:29:33.091Z,85.27
2017-12-31T01:30:39.434Z,85.24
2017-12-31T01:31:45.516Z,85.31
2017-12-31T01:32:51.775Z,85.29
2017-12-31T01:33:57.967Z,85.05
2017-12-31T01:35:04.223Z,85.21
2017-12-31T01:36:12.564Z,85.30
2017-12-31T01:37:18.830Z,85.05
2017-12-31T01:38:25.155Z,84.63
2017-12-31T01:39:31.390Z,84.53
2017-12-31T01:40:37.661Z,84.58
2017-12-31T01:41:44.810Z,84.42
2017-12-31T01:42:51.394Z,84.43
2017-12-31T01:43:58.503Z,84.40
2017-12-31T01:45:04.739Z,84.44
2017-12-31T01:46:10.986Z,84.56
2017-12-31T01:47:18.125Z,84.56
2017-12-31T01:48:24.364Z,84.58
2017-12-31T01:49:30.800Z,84.66
2017-12-31T01:50:37.015Z,85.01
2017-12-31T01:51:43.249Z,85.14
2017-12-31T01:52:49.530Z,85.17
2017-12-31T01:53:55.766Z,85.22
2017-12-31T01:55:02.218Z,84.95
2017-12-31T01:56:08.462Z,84.99
2017-12-31T01:57:14.734Z,84.88
2017-12-31T01:58:20.927Z,84.97
2017-12-31T01:59:27.505Z,85.00
2017-12-31T02:00:33.689Z,85.21
2017-12-31T02:01:38.597Z,85.22
2017-12-31T02:02:44.590Z,85.38
2017-12-31T02:03:54.854Z,85.29
2017-12-31T02:05:01.046Z,85.15
2017-12-31T02:06:06.966Z,85.18
2017-12-31T02:07:13.202Z,85.37
2017-12-31T02:08:19.416Z,85.75
2017-12-31T02:09:26.546Z,85.97
2017-12-31T02:10:34.646Z,85.99
2017-12-31T02:11:41.517Z,86.05
2017-12-31T02:12:48.620Z,86.01
2017-12-31T02:13:54.809Z,85.76
2017-12-31T02:15:01.143Z,85.59
2017-12-31T02:16:07.381Z,85.54
2017-12-31T02:17:13.462Z,85.67
2017-12-31T02:18:19.283Z,85.72
2017-12-31T02:19:25.464Z,85.86
2017-12-31T02:20:31.645Z,85.97
2017-12-31T02:21:38.868Z,86.10
2017-12-31T02:22:46.044Z,86.06
2017-12-31T02:23:52.243Z,86.18
2017-12-31T02:24:58.497Z,86.09
2017-12-31T02:26:04.716Z,86.08
2017-12-31T02:27:11.678Z,86.14
2017-12-31T02:28:20.723Z,86.25
2017-12-31T02:29:26.909Z,86.17
2017-12-31T02:30:33.142Z,86.02
2017-12-31T02:31:39.335Z,86.07
2017-12-31T02:32:45.584Z,85.93
2017-12-31T02:33:51.750Z,85.80
2017-12-31T02:34:58.032Z,85.94
2017-12-31T02:36:05.154Z,85.91
2017-12-31T02:37:11.381Z,85.77
2017-12-31T02:38:17.269Z,85.60
2017-12-31T02:39:29.924Z,85.81
2017-12-31T02:40:36.139Z,85.52
2017-12-31T02:41:42.380Z,85.63
2017-12-31T02:42:48.717Z,85.47
2017-12-31T02:43:55.482Z,85.24
2017-12-31T02:45:02.032Z,85.09
2017-12-31T02:46:08.301Z,85.35
2017-12-31T02:47:14.513Z,85.43
2017-12-31T02:48:20.733Z,85.44
2017-12-31T02:49:26.685Z,85.76
2017-12-31T02:50:33.739Z,86.05
2017-12-31T02:51:39.947Z,86.05
2017-12-31T02:52:46.228Z,86.10
2017-12-31T02:53:55.265Z,86.02
2017-12-31T02:55:01.494Z,85.93
2017-12-31T02:56:07.704Z,85.98
2017-12-31T02:57:14.549Z,85.97
2017-12-31T02:58:20.763Z,85.89
2017-12-31T03:00:38.276Z,85.69
2017-12-31T03:01:44.482Z,85.95
2017-12-31T03:02:50.722Z,85.87
2017-12-31T03:03:56.946Z,85.67
2017-12-31T03:05:03.259Z,85.50
2017-12-31T03:06:09.468Z,85.70
2017-12-31T03:07:15.733Z,85.68
2017-12-31T03:08:22.168Z,85.56
2017-12-31T03:09:28.430Z,85.45
2017-12-31T03:10:34.342Z,85.58
2017-12-31T03:11:40.533Z,85.66
2017-12-31T03:12:46.741Z,85.58
2017-12-31T03:13:52.972Z,85.86
2017-12-31T03:14:59.078Z,85.80
2017-12-31T03:16:07.191Z,85.93
2017-12-31T03:17:13.513Z,86.11
2017-12-31T03:18:19.781Z,86.38
2017-12-31T03:19:25.986Z,86.47
2017-12-31T03:20:32.158Z,86.57
2017-12-31T03:21:38.586Z,86.84
2017-12-31T03:22:44.950Z,86.88
2017-12-31T03:23:51.153Z,86.80
2017-12-31T03:24:57.041Z,86.93
2017-12-31T03:26:03.699Z,86.73
2017-12-31T03:27:09.880Z,86.79
2017-12-31T03:28:16.121Z,86.99
2017-12-31T03:29:22.305Z,87.09
2017-12-31T03:30:29.382Z,87.37
2017-12-31T03:31:35.617Z,87.69
2017-12-31T03:32:41.864Z,88.14
2017-12-31T03:33:48.084Z,88.13
2017-12-31T03:34:54.498Z,88.14
2017-12-31T03:36:01.330Z,88.16
2017-12-31T03:37:07.608Z,88.15
2017-12-31T03:38:13.824Z,88.07
2017-12-31T03:39:20.052Z,87.92
2017-12-31T03:40:26.498Z,87.94
2017-12-31T03:41:32.650Z,88.23
2017-12-31T03:42:38.866Z,88.04
2017-12-31T03:43:45.059Z,88.26
2017-12-31T03:44:51.253Z,88.56
2017-12-31T03:45:57.462Z,88.71
2017-12-31T03:47:03.698Z,88.55
2017-12-31T03:48:09.934Z,88.71
2017-12-31T03:49:17.089Z,88.87
2017-12-31T03:50:24.527Z,89.08
2017-12-31T03:51:30.762Z,89.16
2017-12-31T03:52:37.002Z,89.46
2017-12-31T03:53:43.178Z,89.46
2017-12-31T03:54:49.384Z,89.35
2017-12-31T03:55:56.002Z,89.39
2017-12-31T03:57:02.512Z,89.46
2017-12-31T03:58:08.719Z,89.87
2017-12-31T03:59:14.994Z,90.41
2017-12-31T04:00:20.879Z,90.48
2017-12-31T04:01:26.757Z,90.64
2017-12-31T04:02:32.992Z,90.75
2017-12-31T04:03:39.227Z,91.06
2017-12-31T04:04:45.762Z,91.59
2017-12-31T04:05:52.251Z,91.58
2017-12-31T04:06:58.507Z,91.81
2017-12-31T04:08:04.726Z,91.66
2017-12-31T04:09:10.937Z,91.89
2017-12-31T04:10:17.109Z,91.89
2017-12-31T04:11:23.347Z,91.82
2017-12-31T04:12:29.630Z,91.85
2017-12-31T04:13:35.794Z,91.86
2017-12-31T04:14:42.918Z,92.01
2017-12-31T04:15:49.142Z,92.09
2017-12-31T04:16:55.360Z,91.86
2017-12-31T04:18:01.686Z,92.02
2017-12-31T04:19:08.140Z,92.24
2017-12-31T04:20:14.546Z,92.37
2017-12-31T04:21:20.412Z,92.81
2017-12-31T04:22:26.622Z,92.89
2017-12-31T04:23:32.836Z,92.66
2017-12-31T04:24:39.082Z,92.56
2017-12-31T04:25:45.244Z,92.54
2017-12-31T04:26:51.409Z,92.67
2017-12-31T04:27:57.732Z,92.77
2017-12-31T04:29:03.899Z,92.92
2017-12-31T04:30:10.107Z,92.96
2017-12-31T04:31:22.755Z,93.00
2017-12-31T04:32:29.098Z,92.99
2017-12-31T04:33:35.399Z,92.99
2017-12-31T04:34:46.593Z,92.93
2017-12-31T04:35:52.820Z,92.99
2017-12-31T04:36:59.057Z,93.40
2017-12-31T04:38:05.004Z,93.60
2017-12-31T04:39:11.238Z,93.74
2017-12-31T04:40:17.450Z,93.78
2017-12-31T04:41:23.723Z,93.93
2017-12-31T04:42:29.970Z,94.13
2017-12-31T04:43:36.632Z,94.27
2017-12-31T04:44:43.033Z,94.21
2017-12-31T04:45:49.283Z,94.05
2017-12-31T04:46:55.508Z,94.07
2017-12-31T04:48:01.701Z,94.06
2017-12-31T04:49:07.885Z,94.30
2017-12-31T04:50:14.132Z,94.45
2017-12-31T04:51:20.381Z,94.40
2017-12-31T04:52:26.674Z,94.32
2017-12-31T04:53:32.878Z,94.33
2017-12-31T04:54:39.129Z,94.33
2017-12-31T04:55:45.347Z,94.61
2017-12-31T04:56:51.551Z,94.62
2017-12-31T04:57:58.168Z,94.69
2017-12-31T04:59:04.475Z,94.83
2017-12-31T05:00:10.665Z,95.01
2017-12-31T05:01:17.037Z,94.95
2017-12-31T05:02:23.274Z,94.82
2017-12-31T05:03:29.450Z,94.82
2017-12-31T05:04:35.659Z,95.00
2017-12-31T05:05:41.850Z,95.17
2017-12-31T05:06:47.694Z,95.21
2017-12-31T05:07:53.867Z,95.36
2017-12-31T05:09:00.158Z,95.42
2017-12-31T05:10:06.386Z,95.44
2017-12-31T05:11:12.575Z,95.43
2017-12-31T05:12:18.771Z,95.56
2017-12-31T05:13:28.040Z,95.68
2017-12-31T05:14:34.325Z,95.81
2017-12-31T05:15:40.522Z,96.00
2017-12-31T05:16:46.752Z,96.00
2017-12-31T05:17:52.999Z,95.93
2017-12-31T05:18:59.263Z,95.80
2017-12-31T05:20:05.461Z,95.78
2017-12-31T05:21:11.766Z,95.79
2017-12-31T05:22:18.943Z,95.74
2017-12-31T05:23:25.195Z,95.70
2017-12-31T05:24:31.528Z,95.77
2017-12-31T05:25:41.750Z,95.75
2017-12-31T05:26:47.946Z,95.81
2017-12-31T05:27:54.200Z,95.95
2017-12-31T05:29:00.426Z,95.98
2017-12-31T05:30:06.659Z,96.02
2017-12-31T05:31:12.879Z,96.14
2017-12-31T05:32:19.058Z,96.21
2017-12-31T05:33:25.231Z,96.31
2017-12-31T05:34:31.467Z,96.38
2017-12-31T05:35:37.723Z,96.35
2017-12-31T05:36:43.927Z,96.25
2017-12-31T05:37:50.126Z,96.21
2017-12-31T05:38:56.612Z,95.99
2017-12-31T05:40:02.895Z,96.01
2017-12-31T05:41:12.557Z,96.14
2017-12-31T05:42:19.665Z,96.23
2017-12-31T05:43:25.844Z,96.35
2017-12-31T05:44:32.033Z,96.43
2017-12-31T05:45:38.277Z,96.38
2017-12-31T05:46:44.531Z,96.38
2017-12-31T05:47:50.807Z,96.38
2017-12-31T05:48:57.157Z,96.44
2017-12-31T05:50:03.415Z,96.48
2017-12-31T05:51:10.228Z,96.53
2017-12-31T05:52:17.505Z,96.53
2017-12-31T05:53:24.498Z,96.62
2017-12-31T05:54:33.610Z,96.54
2017-12-31T05:55:42.594Z,96.46
2017-12-31T05:56:51.123Z,96.62
2017-12-31T05:57:59.501Z,96.61
2017-12-31T05:59:09.191Z,96.52
2017-12-31T06:00:16.797Z,96.43
2017-12-31T06:01:23.291Z,96.52
2017-12-31T06:02:29.659Z,96.49
2017-12-31T06:03:36.262Z,96.33
2017-12-31T06:04:44.150Z,96.27
2017-12-31T06:05:51.061Z,95.96
2017-12-31T06:06:57.701Z,95.85
2017-12-31T06:08:05.544Z,95.92
2017-12-31T06:09:15.395Z,95.90
2017-12-31T06:10:24.082Z,96.00
2017-12-31T06:11:30.986Z,96.14
2017-12-31T06:12:37.529Z,96.29
2017-12-31T06:13:45.112Z,96.54
2017-12-31T06:14:51.994Z,96.80
2017-12-31T06:15:59.065Z,96.86
2017-12-31T06:17:07.066Z,96.79
2017-12-31T06:18:14.537Z,96.68
2017-12-31T06:19:21.632Z,96.60
2017-12-31T06:20:28.406Z,96.84
2017-12-31T06:21:35.285Z,97.35
2017-12-31T06:22:44.513Z,97.55
2017-12-31T06:23:52.017Z,97.93
2017-12-31T06:24:59.106Z,98.24
2017-12-31T06:26:09.225Z,98.54
2017-12-31T06:27:15.778Z,98.74
2017-12-31T06:28:24.450Z,98.68
2017-12-31T06:29:30.983Z,98.75
2017-12-31T06:30:39.063Z,99.19
2017-12-31T06:31:46.130Z,99.38
2017-12-31T06:32:52.639Z,99.38
2017-12-31T06:34:00.563Z,99.50
2017-12-31T06:35:07.011Z,99.61
2017-12-31T06:36:14.265Z,99.54
2017-12-31T06:37:20.922Z,99.87
2017-12-31T06:38:28.125Z,100.00
2017-12-31T06:39:34.833Z,100.00
2017-12-31T06:40:41.937Z,100.00
2017-12-31T06:41:49.477Z,100.00
2017-12-31T06:42:56.471Z,100.00
2017-12-31T06:44:04.115Z,100.00
2017-12-31T06:45:11.275Z,100.00
2017-12-31T06:46:18.972Z,100.00
2017-12-31T06:47:25.909Z,100.00
2017-12-31T06:48:32.544Z,100.00
2017-12-31T06:49:41.999Z,100.00
2017-12-31T06:50:49.857Z,100.00
2017-12-31T06:51:56.263Z,100.00
2017-12-31T06:53:02.583Z,100.00
2017-12-31T06:54:08.867Z,100.00
2017-12-31T06:55:15.032Z,100.00
2017-12-31T06:56:21.321Z,100.00
2017-12-31T06:57:27.898Z,100.00
2017-12-31T06:58:34.129Z,100.00
2017-12-31T06:59:39.919Z,100.00
2017-12-31T07:00:46.111Z,100.00
2017-12-31T07:01:52.323Z,100.00
2017-12-31T07:02:59.467Z,100.00
2017-12-31T07:04:05.750Z,100.00
2017-12-31T07:05:11.957Z,100.00
2017-12-31T07:06:18.184Z,100.00
2017-12-31T07:07:24.381Z,100.00
2017-12-31T07:08:30.604Z,100.00
2017-12-31T07:09:36.838Z,100.00
2017-12-31T07:10:43.187Z,100.00
2017-12-31T07:11:49.441Z,100.00
2017-12-31T07:12:55.849Z,100.00
2017-12-31T07:14:02.233Z,100.00
2017-12-31T07:15:08.436Z,100.00
2017-12-31T07:16:15.667Z,100.00
2017-12-31T07:17:22.836Z,100.00
2017-12-31T07:18:29.092Z,100.00
2017-12-31T07:19:35.283Z,100.00
2017-12-31T07:20:41.506Z,100.00
2017-12-31T07:21:47.709Z,100.00
2017-12-31T07:22:53.972Z,100.00
2017-12-31T07:24:00.206Z,100.00
2017-12-31T07:25:06.397Z,100.00
2017-12-31T07:26:12.645Z,100.00
2017-12-31T07:27:18.830Z,100.00
2017-12-31T07:28:25.057Z,100.00
2017-12-31T07:29:31.614Z,100.00
2017-12-31T07:30:38.003Z,100.00
2017-12-31T07:31:44.282Z,100.00
2017-12-31T07:32:51.797Z,100.00
2017-12-31T07:34:02.533Z,100.00
2017-12-31T07:35:08.957Z,100.00
2017-12-31T07:36:16.128Z,100.00
2017-12-31T07:37:23.706Z,100.00
2017-12-31T07:38:30.169Z,100.00
2017-12-31T07:39:38.859Z,100.00
2017-12-31T07:40:45.386Z,100.00
2017-12-31T07:41:52.021Z,100.00
2017-12-31T07:42:59.366Z,100.00
2017-12-31T07:44:05.942Z,100.00
2017-12-31T07:45:14.051Z,100.00
2017-12-31T07:46:25.555Z,100.00
2017-12-31T07:47:36.868Z,100.00
2017-12-31T07:48:43.409Z,100.00
2017-12-31T07:49:50.169Z,100.00
2017-12-31T07:50:57.135Z,100.00
2017-12-31T07:52:03.674Z,100.00
2017-12-31T07:53:10.771Z,100.00
2017-12-31T07:54:17.152Z,100.00
2017-12-31T07:55:23.378Z,100.00
2017-12-31T07:56:30.274Z,100.00
2017-12-31T07:57:38.657Z,100.00
2017-12-31T07:58:45.975Z,100.00
2017-12-31T07:59:53.055Z,100.00
2017-12-31T08:01:01.351Z,100.00
2017-12-31T08:02:08.606Z,100.00
2017-12-31T08:03:16.945Z,100.00
2017-12-31T08:04:23.914Z,100.00
2017-12-31T08:05:31.536Z,100.00
2017-12-31T08:06:38.477Z,100.00
2017-12-31T08:07:50.229Z,100.00
2017-12-31T08:08:57.454Z,100.00
2017-12-31T08:10:05.318Z,100.00
2017-12-31T08:11:12.635Z,100.00
2017-12-31T08:12:19.159Z,100.00
2017-12-31T08:13:27.148Z,100.00
2017-12-31T08:14:34.743Z,100.00
2017-12-31T08:15:41.224Z,100.00
2017-12-31T08:16:47.933Z,100.00
2017-12-31T08:17:54.218Z,100.00
2017-12-31T08:19:00.853Z,100.00
2017-12-31T08:20:08.911Z,100.00
2017-12-31T08:21:16.270Z,100.00
2017-12-31T08:22:24.163Z,100.00
2017-12-31T08:23:32.321Z,100.00
2017-12-31T08:24:40.003Z,100.00
2017-12-31T08:25:46.767Z,100.00
2017-12-31T08:26:53.436Z,100.00
2017-12-31T08:28:00.355Z,100.00
2017-12-31T08:29:06.603Z,100.00
2017-12-31T08:30:12.828Z,100.00
2017-12-31T08:31:19.096Z,100.00
2017-12-31T08:32:25.258Z,100.00
2017-12-31T08:33:31.154Z,100.00
2017-12-31T08:34:37.998Z,100.00
2017-12-31T08:35:44.249Z,100.00
2017-12-31T08:36:50.523Z,100.00
2017-12-31T08:37:56.777Z,100.00
2017-12-31T08:39:03.094Z,100.00
2017-12-31T08:40:09.686Z,100.00
2017-12-31T08:41:15.974Z,100.00
2017-12-31T08:42:22.154Z,100.00
2017-12-31T08:43:28.558Z,100.00
2017-12-31T08:44:35.513Z,100.00
2017-12-31T08:45:42.487Z,100.00
2017-12-31T08:46:48.704Z,100.00
2017-12-31T08:47:54.944Z,100.00
2017-12-31T08:49:00.978Z,100.00
2017-12-31T08:50:07.155Z,100.00
2017-12-31T08:51:13.351Z,100.00
2017-12-31T08:52:19.531Z,100.00
2017-12-31T08:53:26.915Z,100.00
2017-12-31T08:54:34.622Z,100.00
2017-12-31T08:55:42.272Z,100.00
2017-12-31T08:56:51.642Z,100.00
2017-12-31T08:57:59.435Z,100.00
2017-12-31T08:59:06.777Z,100.00
2017-12-31T09:00:14.963Z,100.00
2017-12-31T09:01:22.749Z,100.00
2017-12-31T09:02:30.427Z,100.00
2017-12-31T09:03:37.442Z,100.00
2017-12-31T09:04:49.882Z,100.00
2017-12-31T09:07:14.586Z,100.00
2017-12-31T09:08:21.899Z,100.00
2017-12-31T09:09:29.508Z,100.00
2017-12-31T09:10:38.127Z,100.00
2017-12-31T09:11:45.702Z,100.00
2017-12-31T09:12:53.314Z,100.00
2017-12-31T09:14:00.781Z,100.00
2017-12-31T09:15:09.022Z,100.00
2017-12-31T09:16:16.369Z,100.00
2017-12-31T09:17:26.788Z,100.00
2017-12-31T09:18:34.543Z,100.00
2017-12-31T09:19:42.521Z,100.00
2017-12-31T09:20:50.278Z,100.00
2017-12-31T09:21:57.281Z,100.00
2017-12-31T09:23:09.800Z,100.00
2017-12-31T09:24:18.158Z,100.00
2017-12-31T09:25:25.765Z,100.00
2017-12-31T09:26:31.985Z,100.00
2017-12-31T09:27:39.057Z,100.00
2017-12-31T09:28:46.674Z,100.00
2017-12-31T09:29:55.190Z,100.00
2017-12-31T09:31:02.730Z,100.00
2017-12-31T09:32:10.343Z,100.00
2017-12-31T09:33:20.381Z,100.00
2017-12-31T09:34:27.128Z,100.00
2017-12-31T09:35:34.011Z,100.00
2017-12-31T09:36:41.824Z,100.00
2017-12-31T09:37:49.471Z,100.00
2017-12-31T09:38:57.958Z,100.00
2017-12-31T09:40:05.441Z,100.00
2017-12-31T09:41:12.471Z,100.00
2017-12-31T09:42:20.119Z,99.88
2017-12-31T09:43:28.423Z,99.71
2017-12-31T09:44:35.775Z,99.66
2017-12-31T09:45:43.525Z,99.57
2017-12-31T09:46:51.627Z,99.48
2017-12-31T09:48:00.064Z,99.02
2017-12-31T09:49:07.704Z,98.82
2017-12-31T09:50:15.897Z,98.65
2017-12-31T09:51:23.523Z,98.37
2017-12-31T09:52:31.117Z,97.92
2017-12-31T09:53:38.794Z,98.04
2017-12-31T09:54:45.815Z,98.28
2017-12-31T09:55:53.815Z,98.22
2017-12-31T09:57:00.084Z,98.21
2017-12-31T09:58:07.064Z,98.11
2017-12-31T09:59:14.735Z,98.29
2017-12-31T10:00:22.414Z,97.97
2017-12-31T10:01:30.442Z,97.62
2017-12-31T10:02:37.699Z,97.24
2017-12-31T10:03:45.693Z,97.09
2017-12-31T10:04:53.442Z,96.81
2017-12-31T10:06:01.221Z,96.80
2017-12-31T10:07:14.364Z,96.27
2017-12-31T10:08:21.475Z,96.27
2017-12-31T10:09:29.444Z,96.16
2017-12-31T10:10:37.116Z,96.11
2017-12-31T10:11:44.124Z,96.18
2017-12-31T10:12:50.382Z,96.28
2017-12-31T10:13:56.593Z,96.17
2017-12-31T10:15:02.869Z,96.32
2017-12-31T10:16:09.142Z,95.78
2017-12-31T10:17:15.366Z,95.86
2017-12-31T10:18:24.571Z,95.55
2017-12-31T10:19:32.107Z,95.12
2017-12-31T10:20:39.659Z,95.00
2017-12-31T10:21:47.115Z,95.22
2017-12-31T10:22:54.640Z,95.34
2017-12-31T10:24:02.122Z,95.49
2017-12-31T10:25:09.720Z,95.60
2017-12-31T10:26:17.999Z,95.21
2017-12-31T10:27:26.574Z,95.56
2017-12-31T10:28:33.496Z,95.58
2017-12-31T10:29:40.301Z,95.30
2017-12-31T10:30:46.571Z,94.54
2017-12-31T10:31:52.810Z,94.46
2017-12-31T10:32:59.033Z,93.95
2017-12-31T10:34:05.316Z,94.03
2017-12-31T10:35:11.568Z,93.98
2017-12-31T10:36:17.767Z,93.95
2017-12-31T10:37:24.009Z,94.08
2017-12-31T10:38:30.235Z,93.97
2017-12-31T10:39:36.227Z,93.69
2017-12-31T10:40:42.490Z,93.33
2017-12-31T10:41:48.688Z,93.41
2017-12-31T10:42:54.849Z,93.24
2017-12-31T10:44:01.068Z,92.81
2017-12-31T10:45:07.320Z,92.82
2017-12-31T10:46:13.350Z,92.76
2017-12-31T10:47:19.560Z,92.58
2017-12-31T10:48:25.774Z,92.52
2017-12-31T10:49:32.005Z,92.38
2017-12-31T10:50:38.200Z,92.05
2017-12-31T10:51:44.407Z,91.59
2017-12-31T10:52:50.627Z,91.43
2017-12-31T10:53:56.869Z,91.40
2017-12-31T10:55:03.057Z,91.07
2017-12-31T10:56:09.235Z,90.90
2017-12-31T10:57:15.453Z,91.05
2017-12-31T10:58:21.684Z,91.02
2017-12-31T10:59:27.884Z,90.77
2017-12-31T11:00:37.193Z,90.31
2017-12-31T11:01:43.156Z,90.35
2017-12-31T11:02:49.382Z,90.49
2017-12-31T11:03:55.623Z,90.48
2017-12-31T11:05:01.990Z,90.11
2017-12-31T11:06:08.154Z,90.23
2017-12-31T11:07:14.403Z,90.31
2017-12-31T11:08:20.583Z,90.20
2017-12-31T11:09:26.763Z,90.02
2017-12-31T11:10:36.942Z,89.66
2017-12-31T11:11:43.202Z,89.83
2017-12-31T11:12:49.432Z,89.92
2017-12-31T11:13:55.700Z,89.79
2017-12-31T11:15:01.975Z,89.86
2017-12-31T11:16:08.297Z,89.43
2017-12-31T11:17:14.463Z,89.48
2017-12-31T11:18:20.714Z,89.10
2017-12-31T11:19:26.965Z,89.36
2017-12-31T11:20:33.166Z,89.16
2017-12-31T11:21:39.339Z,88.28
2017-12-31T11:22:45.633Z,88.02
2017-12-31T11:23:51.897Z,88.24
2017-12-31T11:24:58.131Z,88.10
2017-12-31T11:26:04.349Z,88.06
2017-12-31T11:27:10.596Z,87.57
2017-12-31T11:28:16.794Z,87.34
2017-12-31T11:29:23.305Z,87.33
2017-12-31T11:30:29.508Z,87.57
2017-12-31T11:31:35.793Z,87.28
2017-12-31T11:32:42.022Z,87.21
2017-12-31T11:33:48.434Z,86.99
2017-12-31T11:34:54.620Z,87.10
2017-12-31T11:36:00.789Z,87.08
2017-12-31T11:37:07.099Z,86.72
2017-12-31T11:38:13.154Z,86.82
2017-12-31T11:39:19.434Z,86.41
2017-12-31T11:40:25.625Z,86.73
2017-12-31T11:41:31.832Z,86.82
2017-12-31T11:42:38.074Z,86.56
2017-12-31T11:43:44.290Z,86.70
2017-12-31T11:44:50.506Z,86.63
2017-12-31T11:45:56.753Z,86.64
2017-12-31T11:47:03.230Z,85.90
2017-12-31T11:48:09.466Z,85.59
2017-12-31T11:49:16.653Z,85.36
2017-12-31T11:50:23.017Z,85.40
2017-12-31T11:51:29.199Z,85.10
2017-12-31T11:52:35.444Z,84.92
2017-12-31T11:53:41.700Z,84.69
2017-12-31T11:54:48.188Z,84.52
2017-12-31T11:55:54.373Z,84.07
2017-12-31T11:57:00.614Z,84.30
2017-12-31T11:58:06.874Z,84.04
2017-12-31T11:59:13.077Z,83.91
2017-12-31T12:00:19.292Z,83.63
2017-12-31T12:01:25.550Z,83.25
2017-12-31T12:02:31.907Z,83.02
2017-12-31T12:03:38.106Z,82.39
2017-12-31T12:04:44.358Z,82.80
2017-12-31T12:05:50.566Z,82.75
2017-12-31T12:06:56.801Z,81.75
2017-12-31T12:08:03.088Z,81.73
2017-12-31T12:09:09.347Z,81.62
2017-12-31T12:10:15.594Z,81.87
2017-12-31T12:11:21.906Z,81.47
2017-12-31T12:12:28.220Z,81.68
2017-12-31T12:13:34.433Z,81.56
2017-12-31T12:14:40.634Z,81.40
2017-12-31T12:15:48.755Z,80.94
2017-12-31T12:16:54.666Z,81.08
2017-12-31T12:18:00.985Z,80.82
2017-12-31T12:19:07.418Z,80.81
2017-12-31T12:20:13.361Z,81.27
2017-12-31T12:21:19.647Z,81.21
2017-12-31T12:22:25.974Z,81.19
2017-12-31T12:23:32.328Z,81.06
2017-12-31T12:24:38.604Z,81.31
2017-12-31T12:25:44.905Z,81.05
2017-12-31T12:26:51.202Z,80.96
2017-12-31T12:27:57.133Z,80.54
2017-12-31T12:29:03.433Z,80.77
2017-12-31T12:30:09.791Z,80.66
2017-12-31T12:31:16.503Z,80.74
2017-12-31T12:32:23.754Z,80.61
2017-12-31T12:33:30.002Z,80.46
2017-12-31T12:34:36.283Z,80.49
2017-12-31T12:35:42.627Z,80.35
2017-12-31T12:36:49.042Z,80.13
2017-12-31T12:37:55.299Z,80.19
2017-12-31T12:39:01.560Z,79.82
2017-12-31T12:40:07.957Z,79.99
2017-12-31T12:41:14.214Z,79.81
2017-12-31T12:42:20.640Z,79.64
2017-12-31T12:43:26.965Z,79.29
2017-12-31T12:44:33.248Z,78.98
2017-12-31T12:45:39.591Z,78.67
2017-12-31T12:46:45.903Z,78.97
2017-12-31T12:47:52.215Z,79.06
2017-12-31T12:48:58.181Z,79.66
2017-12-31T12:50:04.113Z,79.47
2017-12-31T12:51:10.374Z,79.21
2017-12-31T12:52:16.604Z,79.43
2017-12-31T12:53:22.878Z,79.17
2017-12-31T12:54:29.157Z,78.73
2017-12-31T12:55:35.383Z,78.82
2017-12-31T12:56:41.609Z,79.09
2017-12-31T12:57:47.835Z,79.13
2017-12-31T12:58:54.158Z,79.37
2017-12-31T13:00:00.510Z,79.25
2017-12-31T13:01:06.838Z,79.32
2017-12-31T13:02:13.143Z,79.16
2017-12-31T13:03:19.428Z,78.88
2017-12-31T13:04:26.387Z,78.38
2017-12-31T13:05:32.715Z,78.67
2017-12-31T13:06:39.176Z,78.34
2017-12-31T13:07:51.523Z,78.35
2017-12-31T13:08:57.838Z,78.24
2017-12-31T13:10:04.116Z,78.59
2017-12-31T13:11:10.392Z,78.36
2017-12-31T13:12:16.620Z,78.04
2017-12-31T13:13:22.922Z,77.85
2017-12-31T13:14:29.201Z,78.00
2017-12-31T13:15:35.478Z,77.84
2017-12-31T13:16:41.778Z,77.75
2017-12-31T13:17:48.101Z,77.94
2017-12-31T13:18:54.741Z,77.68
2017-12-31T13:20:01.564Z,77.38
2017-12-31T13:21:12.896Z,77.27
2017-12-31T13:22:19.105Z,77.09
2017-12-31T13:23:25.028Z,77.07
2017-12-31T13:24:31.365Z,77.00
2017-12-31T13:25:37.665Z,76.64
2017-12-31T13:26:43.983Z,76.72
2017-12-31T13:27:50.301Z,76.65
2017-12-31T13:28:56.545Z,76.55
2017-12-31T13:30:04.124Z,76.40
2017-12-31T13:31:10.396Z,76.44
2017-12-31T13:32:17.114Z,76.38
2017-12-31T13:33:23.316Z,76.45
2017-12-31T13:34:29.584Z,76.70
2017-12-31T13:35:35.773Z,76.66
2017-12-31T13:36:42.008Z,76.92
2017-12-31T13:37:48.731Z,77.07
2017-12-31T13:38:55.011Z,77.19
2017-12-31T13:40:01.318Z,77.25
2017-12-31T13:41:13.995Z,77.15
2017-12-31T13:42:24.210Z,77.13
2017-12-31T13:43:30.648Z,76.93
2017-12-31T13:44:36.884Z,76.44
2017-12-31T13:45:43.228Z,77.40
2017-12-31T13:46:49.509Z,77.47
2017-12-31T13:47:55.794Z,77.63
2017-12-31T13:49:02.217Z,77.54
2017-12-31T13:50:09.877Z,77.55
2017-12-31T13:51:16.066Z,77.37
2017-12-31T13:52:22.393Z,77.76
2017-12-31T13:53:28.666Z,77.83
2017-12-31T13:54:34.626Z,77.93
2017-12-31T13:55:40.915Z,77.63
2017-12-31T13:56:47.214Z,77.59
2017-12-31T13:57:53.489Z,77.56
2017-12-31T13:58:59.746Z,77.61
2017-12-31T14:00:09.502Z,77.95
2017-12-31T14:01:15.812Z,77.86
2017-12-31T14:02:22.061Z,77.90
2017-12-31T14:03:28.429Z,77.44
2017-12-31T14:04:34.700Z,77.38
2017-12-31T14:05:41.095Z,77.86
2017-12-31T14:06:47.415Z,77.79
2017-12-31T14:07:53.743Z,78.03
2017-12-31T14:08:59.956Z,77.88
2017-12-31T14:10:06.174Z,78.13
2017-12-31T14:11:12.425Z,78.11
2017-12-31T14:12:18.680Z,78.21
2017-12-31T14:13:24.848Z,78.64
2017-12-31T14:14:31.047Z,78.92
2017-12-31T14:15:37.300Z,79.40
2017-12-31T14:16:45.893Z,79.35